Time;durP1;ratioP1;P1;durP2;ratioP2;P2;SDS_P1;SDS_P2;PMS_P1;PMS_P2;Temp;Humidity;BMP_temperature;BMP_pressure;BME280_temperature;BME280_humidity;BME280_pressure;Samples;Min_cycle;Max_cycle;Signal;HPM_P1;HPM_P2
2021/03/13 00:01:43;;;;;;;26.52;20.05;;;;;;;-0.82;100.00;98719.52;1822703;78;21455;-69
2021/03/13 00:04:12;;;;;;;27.20;20.52;;;;;;;-0.86;100.00;98729.31;1822679;78;21443;-69
2021/03/13 00:06:41;;;;;;;29.77;22.25;;;;;;;-0.92;100.00;98721.34;1822690;78;21489;-68
2021/03/13 00:09:10;;;;;;;28.55;20.90;;;;;;;-0.94;100.00;98725.59;1822623;78;20959;-69
2021/03/13 00:11:40;;;;;;;27.32;20.25;;;;;;;-0.94;100.00;98724.30;1800104;78;20932;-69
2021/03/13 00:14:11;;;;;;;28.65;20.92;;;;;;;-0.94;100.00;98725.59;1796175;80;20924;-69
2021/03/13 00:16:43;;;;;;;26.90;19.37;;;;;;;-0.98;100.00;98725.88;1794901;80;21373;-69
2021/03/13 00:19:15;;;;;;;27.25;19.37;;;;;;;-0.97;100.00;98726.75;1793904;80;20958;-68
2021/03/13 00:21:50;;;;;;;30.65;21.15;;;;;;;-0.95;100.00;98723.80;1808829;79;20934;-69
2021/03/13 00:24:24;;;;;;;29.80;20.45;;;;;;;-0.93;100.00;98728.65;1793372;80;21072;-68
2021/03/13 00:26:56;;;;;;;29.60;19.98;;;;;;;-0.88;100.00;98730.09;1826898;78;20921;-68
2021/03/13 00:29:26;;;;;;;26.60;19.17;;;;;;;-0.85;100.00;98728.48;1812993;77;21205;-68
2021/03/13 00:31:57;;;;;;;26.13;18.80;;;;;;;-0.84;100.00;98725.47;1809480;78;20964;-69
2021/03/13 00:34:28;;;;;;;28.02;20.15;;;;;;;-0.82;100.00;98726.40;1828748;77;21625;-69
2021/03/13 00:36:58;;;;;;;30.30;19.10;;;;;;;-0.79;100.00;98727.38;1819719;78;20926;-69
2021/03/13 00:39:30;;;;;;;28.90;20.17;;;;;;;-0.75;100.00;98727.05;1815490;78;21053;-68
2021/03/13 00:42:02;;;;;;;;;;;;;;;-0.71;100.00;98722.02;1797847;80;21528;-68
2021/03/13 00:44:33;;;;;;;30.85;20.68;;;;;;;-0.67;100.00;98712.63;1819778;78;20132;-68
2021/03/13 00:47:12;;;;;;;31.30;21.42;;;;;;;-0.63;100.00;98724.84;1819757;78;20911;-69
2021/03/13 00:49:42;;;;;;;29.18;20.97;;;;;;;-0.61;100.00;98724.89;1819695;78;20915;-69
2021/03/13 00:52:14;;;;;;;29.83;20.37;;;;;;;-0.60;100.00;98727.95;1797346;78;20933;-69
2021/03/13 00:54:47;;;;;;;28.65;20.75;;;;;;;-0.60;100.00;98726.66;1864650;77;22229;-68
2021/03/13 00:57:19;;;;;;;26.95;20.15;;;;;;;-0.56;100.00;98733.27;1829898;78;20899;-68
2021/03/13 00:59:49;;;;;;;32.65;23.77;;;;;;;-0.56;100.00;98733.69;1828993;77;20933;-68
2021/03/13 01:02:20;;;;;;;29.23;20.97;;;;;;;-0.59;100.00;98737.06;1864513;75;20920;-68
2021/03/13 01:04:50;;;;;;;28.62;21.37;;;;;;;-0.57;100.00;98728.92;1829849;77;20938;-68
2021/03/13 01:07:21;;;;;;;28.60;21.45;;;;;;;-0.54;100.00;98730.31;1829062;77;22125;-67
2021/03/13 01:09:51;;;;;;;28.05;20.40;;;;;;;-0.56;100.00;98727.20;1836018;77;20932;-67
2021/03/13 01:12:22;;;;;;;27.75;20.92;;;;;;;-0.56;100.00;98729.38;1813690;78;21084;-67
2021/03/13 01:14:55;;;;;;;26.62;19.92;;;;;;;-0.55;100.00;98728.55;1818151;77;20890;-68
2021/03/13 01:17:24;;;;;;;31.10;22.82;;;;;;;-0.54;100.00;98739.80;1813708;77;20953;-68
2021/03/13 01:19:56;;;;;;;27.58;20.90;;;;;;;-0.55;100.00;98738.03;1812793;77;21358;-67
2021/03/13 01:22:28;;;;;;;28.67;19.62;;;;;;;-0.56;100.00;98734.98;1810517;78;21109;-68
2021/03/13 01:25:00;;;;;;;27.87;19.65;;;;;;;-0.57;100.00;98740.58;1826650;78;20935;-68
2021/03/13 01:27:30;;;;;;;28.95;20.60;;;;;;;-0.54;100.00;98738.50;1801654;78;20955;-68
2021/03/13 01:30:00;;;;;;;30.55;20.88;;;;;;;-0.51;100.00;98734.29;1769007;78;20955;-68
2021/03/13 01:32:29;;;;;;;27.20;19.55;;;;;;;-0.52;100.00;98732.95;1799167;78;22122;-68
2021/03/13 01:35:03;;;;;;;32.17;21.65;;;;;;;-0.54;100.00;98733.31;1797827;79;20943;-67
2021/03/13 01:37:34;;;;;;;29.27;20.30;;;;;;;-0.58;100.00;98729.75;1810203;79;20947;-68
2021/03/13 01:40:10;;;;;;;28.00;19.85;;;;;;;-0.57;100.00;98731.51;1806056;77;21558;-68
2021/03/13 01:42:45;;;;;;;29.25;20.77;;;;;;;-0.59;100.00;98731.88;1797798;79;20950;-68
2021/03/13 01:45:19;;;;;;;26.23;19.20;;;;;;;-0.61;100.00;98739.14;1800288;78;22125;-68
2021/03/13 01:47:50;;;;;;;25.05;18.65;;;;;;;-0.62;100.00;98756.39;1792584;78;21090;-68
2021/03/13 01:50:22;;;;;;;29.20;18.82;;;;;;;-0.65;100.00;98753.70;1820697;78;20987;-68
2021/03/13 01:52:53;;;;;;;25.97;18.80;;;;;;;-0.66;100.00;98750.23;1814259;78;20916;-68
2021/03/13 01:55:25;;;;;;;25.80;18.70;;;;;;;-0.66;100.00;98745.06;1817342;78;21073;-68
2021/03/13 01:57:57;;;;;;;27.27;19.07;;;;;;;-0.64;100.00;98752.46;1791292;78;21237;-68
2021/03/13 02:00:29;;;;;;;26.82;18.95;;;;;;;-0.66;100.00;98750.23;1790132;78;20975;-68
2021/03/13 02:03:02;;;;;;;28.27;20.15;;;;;;;-0.68;100.00;98746.72;1820616;78;20947;-68
2021/03/13 02:05:43;;;;;;;27.25;18.35;;;;;;;-0.70;100.00;98740.61;1822139;78;20936;-68
2021/03/13 02:08:34;;;;;;;28.12;19.57;;;;;;;-0.70;100.00;98738.02;1815337;78;21490;-67
2021/03/13 02:11:53;;;;;;;26.17;18.60;;;;;;;-0.70;100.00;98743.20;1828629;78;20915;-67
2021/03/13 02:14:39;;;;;;;26.93;19.77;;;;;;;-0.67;100.00;98745.02;1832792;76;20964;-68
2021/03/13 02:17:45;;;;;;;25.25;18.92;;;;;;;-0.67;100.00;98745.89;1835215;77;21116;-69
2021/03/13 02:20:26;;;;;;;28.60;18.75;;;;;;;-0.68;100.00;98742.83;1804256;78;20931;-69
2021/03/13 02:23:00;;;;;;;26.75;18.98;;;;;;;-0.69;100.00;98757.91;1812783;78;21065;-69
2021/03/13 02:26:05;;;;;;;27.25;19.60;;;;;;;-0.70;100.00;98756.16;1834575;76;21200;-69
2021/03/13 02:28:49;;;;;;;28.57;19.25;;;;;;;-0.73;100.00;98744.81;1834201;77;20954;-69
2021/03/13 02:31:26;;;;;;;26.30;19.37;;;;;;;-0.70;100.00;98745.80;1837197;76;22751;-68
2021/03/13 02:33:59;;;;;;;28.05;19.90;;;;;;;-0.76;100.00;98753.37;1809467;78;21603;-68
2021/03/13 02:36:37;;;;;;;29.77;21.80;;;;;;;-0.76;100.00;98752.48;1778375;79;21796;-68
2021/03/13 02:39:12;;;;;;;29.12;20.17;;;;;;;-0.75;100.00;98744.77;1779564;78;21261;-68
2021/03/13 02:41:48;;;;;;;30.02;20.30;;;;;;;-0.74;100.00;98754.30;1808193;78;20962;-68
2021/03/13 02:44:19;;;;;;;27.48;19.73;;;;;;;-0.75;100.00;98755.55;1809413;78;20945;-67
2021/03/13 02:46:55;;;;;;;28.95;19.82;;;;;;;-0.78;100.00;98756.33;1806647;78;21061;-69
2021/03/13 02:49:27;;;;;;;;;;;;;;;-0.81;100.00;98751.05;1807963;79;21145;-69
2021/03/13 02:52:01;;;;;;;26.23;18.92;;;;;;;-0.83;100.00;98768.66;1805941;78;20149;-69
2021/03/13 02:54:34;;;;;;;26.93;19.55;;;;;;;-0.83;100.00;98758.30;1809095;79;20991;-69
2021/03/13 02:57:08;;;;;;;26.73;19.52;;;;;;;-0.82;100.00;98767.83;1809389;78;20906;-69
2021/03/13 02:59:38;;;;;;;26.35;18.95;;;;;;;-0.85;100.00;98759.97;1804857;78;20954;-69
2021/03/13 03:02:10;;;;;;;20.85;14.00;;;;;;;-0.87;100.00;98756.45;1790999;78;21560;-68
2021/03/13 03:04:42;;;;;;;27.77;18.82;;;;;;;-0.82;100.00;98762.23;1738998;82;21022;-68
2021/03/13 03:07:13;;;;;;;27.90;19.27;;;;;;;-0.80;100.00;98760.99;1710167;82;21084;-69
2021/03/13 03:09:44;;;;;;;26.30;18.20;;;;;;;-0.75;100.00;98760.72;1705009;82;21018;-69
2021/03/13 03:12:15;;;;;;;25.62;18.77;;;;;;;-0.71;100.00;98756.98;1711592;81;21127;-69
2021/03/13 03:14:48;;;;;;;26.37;18.55;;;;;;;-0.68;100.00;98757.50;1714814;82;21384;-69
2021/03/13 03:17:20;;;;;;;28.07;19.37;;;;;;;-0.67;100.00;98766.61;1713544;82;20990;-69
2021/03/13 03:19:53;;;;;;;;;;;;;;;-0.66;100.00;98775.27;1741351;80;21109;-68
2021/03/13 03:22:24;;;;;;;27.48;18.87;;;;;;;-0.66;100.00;98778.73;1684768;83;20509;-67
2021/03/13 03:24:57;;;;;;;24.37;18.05;;;;;;;-0.69;100.00;98777.34;1740388;81;21468;-68
2021/03/13 03:27:27;;;;;;;23.70;17.60;;;;;;;-0.71;100.00;98782.00;1686544;82;21385;-67
2021/03/13 03:30:00;;;;;;;26.77;19.15;;;;;;;-0.75;100.00;98776.27;1737765;81;21587;-68
2021/03/13 03:32:33;;;;;;;26.07;18.65;;;;;;;-0.78;100.00;98778.75;1711880;82;21003;-67
2021/03/13 03:35:08;;;;;;;25.92;18.70;;;;;;;-0.81;100.00;98780.83;1766415;79;20927;-67
2021/03/13 03:37:41;;;;;;;31.15;19.07;;;;;;;-0.85;100.00;98772.91;1766969;79;21136;-68
2021/03/13 03:40:16;;;;;;;28.70;19.40;;;;;;;-0.88;100.00;98769.80;1741151;81;21061;-68
2021/03/13 03:43:15;;;;;;;;;;;;;;;-0.87;100.00;98772.86;1770861;79;20926;-68
2021/03/13 03:45:52;;;;;;;26.55;18.17;;;;;;;-0.87;100.00;98772.86;1785367;79;20154;-68
2021/03/13 03:48:23;;;;;;;26.87;18.42;;;;;;;-0.86;100.00;98765.55;1786792;79;21552;-68
2021/03/13 03:50:55;;;;;;;25.65;18.92;;;;;;;-0.84;100.00;98769.08;1797226;78;20919;-68
2021/03/13 03:53:43;;;;;;;28.15;19.75;;;;;;;-0.82;100.00;98774.30;1768391;79;21591;-69
2021/03/13 03:56:22;;;;;;;26.35;18.98;;;;;;;-0.82;100.00;98775.59;1766354;79;20998;-68
2021/03/13 03:58:52;;;;;;;26.73;18.77;;;;;;;-0.82;100.00;98779.07;1766367;79;20978;-68
2021/03/13 04:01:24;;;;;;;26.80;19.20;;;;;;;-0.85;100.00;98777.67;1766574;79;21022;-68
2021/03/13 04:03:58;;;;;;;25.17;18.17;;;;;;;-0.86;100.00;98778.92;1766369;79;20872;-69
2021/03/13 04:06:28;;;;;;;27.15;18.98;;;;;;;-0.84;100.00;98785.03;1766331;81;22367;-68
2021/03/13 04:08:59;;;;;;;24.80;18.35;;;;;;;-0.87;100.00;98787.52;1768702;79;20911;-68
2021/03/13 04:11:30;;;;;;;25.02;17.77;;;;;;;-0.92;100.00;98788.66;1792669;78;21533;-70
2021/03/13 04:14:00;;;;;;;26.77;19.17;;;;;;;-0.96;100.00;98789.36;1768412;79;20922;-69
2021/03/13 04:16:31;;;;;;;26.07;17.87;;;;;;;-0.99;100.00;98794.43;1793314;78;21069;-68
2021/03/13 04:19:00;;;;;;;26.45;18.73;;;;;;;-1.03;100.00;98789.56;1788651;79;21465;-69
2021/03/13 04:21:31;;;;;;;25.97;18.15;;;;;;;-1.05;100.00;98791.22;1782227;79;20952;-69
2021/03/13 04:24:02;;;;;;;27.10;18.90;;;;;;;-1.03;100.00;98790.86;1768351;79;20899;-69
2021/03/13 04:26:32;;;;;;;31.73;21.97;;;;;;;-0.99;100.00;98798.31;1766479;79;20943;-70
2021/03/13 04:29:02;;;;;;;29.48;20.12;;;;;;;-0.97;100.00;98797.95;1766423;79;20966;-70
2021/03/13 04:31:35;;;;;;;33.15;22.05;;;;;;;-0.93;100.00;98804.14;1745782;80;21354;-69
2021/03/13 04:34:06;;;;;;;29.45;20.57;;;;;;;-0.94;100.00;98800.67;1768326;79;21010;-71
2021/03/13 04:36:37;;;;;;;24.82;15.32;;;;;;;-0.90;100.00;98796.48;1766281;81;20919;-68
2021/03/13 04:39:07;;;;;;;27.93;19.30;;;;;;;-0.86;100.00;98798.34;1745325;81;21465;-69
2021/03/13 04:41:38;;;;;;;32.90;21.35;;;;;;;-0.81;100.00;98795.07;1796518;78;21002;-69
2021/03/13 04:44:08;;;;;;;36.90;23.42;;;;;;;-0.78;100.00;98793.88;1768915;79;21203;-69
2021/03/13 04:46:39;;;;;;;39.48;25.62;;;;;;;-0.72;100.00;98791.90;1766926;79;21002;-69
2021/03/13 04:49:10;;;;;;;35.92;22.00;;;;;;;-0.68;100.00;98798.52;1768581;79;21015;-69
2021/03/13 04:51:40;;;;;;;30.95;20.95;;;;;;;-0.64;100.00;98798.20;1773377;79;21552;-69
2021/03/13 04:54:13;;;;;;;29.25;19.62;;;;;;;-0.61;100.00;98801.31;1795878;79;20986;-70
2021/03/13 04:56:44;;;;;;;27.17;19.30;;;;;;;-0.59;100.00;98797.06;1768311;79;21199;-70
2021/03/13 04:59:14;;;;;;;28.05;17.87;;;;;;;-0.59;100.00;98796.64;1766306;79;20935;-71
2021/03/13 05:01:43;;;;;;;25.72;18.23;;;;;;;-0.59;100.00;98800.94;1788342;78;21063;-70
2021/03/13 05:04:13;;;;;;;25.85;18.87;;;;;;;-0.56;100.00;98805.81;1795361;78;20867;-71
2021/03/13 05:06:43;;;;;;;24.72;18.70;;;;;;;-0.55;100.00;98801.50;1766266;81;20915;-70
2021/03/13 05:09:13;;;;;;;24.63;18.12;;;;;;;-0.54;100.00;98808.03;1766393;79;22275;-69
2021/03/13 05:11:43;;;;;;;25.88;18.23;;;;;;;-0.53;100.00;98803.73;1766204;81;21470;-69
2021/03/13 05:14:14;;;;;;;26.97;19.57;;;;;;;-0.49;100.00;98810.77;1766050;79;20875;-70
2021/03/13 05:16:43;;;;;;;29.60;19.92;;;;;;;-0.48;100.00;98816.41;1766166;80;20915;-67
2021/03/13 05:19:12;;;;;;;26.70;19.85;;;;;;;-0.48;100.00;98808.64;1789972;78;20871;-67
2021/03/13 05:21:42;;;;;;;27.32;20.37;;;;;;;-0.48;100.00;98813.82;1796735;78;21359;-68
2021/03/13 05:24:12;;;;;;;30.25;21.85;;;;;;;-0.49;100.00;98812.94;1794946;78;20888;-68
2021/03/13 05:26:42;;;;;;;27.40;20.52;;;;;;;-0.44;100.00;98814.00;1797283;78;20994;-66
2021/03/13 05:29:11;;;;;;;30.68;21.15;;;;;;;-0.37;100.00;98809.89;1775877;79;21592;-67
2021/03/13 05:31:41;;;;;;;30.40;21.02;;;;;;;-0.29;100.00;98810.13;1766164;80;20947;-68
2021/03/13 05:34:11;;;;;;;29.92;20.70;;;;;;;-0.25;100.00;98808.97;1766429;81;21413;-67
2021/03/13 05:36:40;;;;;;;29.85;21.33;;;;;;;-0.18;100.00;98811.34;1768312;79;21081;-69
2021/03/13 05:39:10;;;;;;;27.13;19.62;;;;;;;-0.12;100.00;98813.70;1768227;79;20927;-69
2021/03/13 05:41:41;;;;;;;28.25;20.60;;;;;;;-0.05;100.00;98819.53;1766203;80;20947;-69
2021/03/13 05:44:10;;;;;;;27.67;19.82;;;;;;;0.06;100.00;98819.01;1766332;81;20935;-69
2021/03/13 05:46:47;;;;;;;27.02;18.98;;;;;;;0.14;100.00;98818.40;1768283;79;21363;-70
2021/03/13 05:49:17;;;;;;;27.02;19.00;;;;;;;0.24;100.00;98815.66;1766423;79;21405;-69
2021/03/13 05:51:48;;;;;;;26.23;18.52;;;;;;;0.34;100.00;98819.39;1768162;79;21077;-68
2021/03/13 05:54:17;;;;;;;27.22;19.15;;;;;;;0.41;100.00;98815.72;1766266;79;20904;-66
2021/03/13 05:56:47;;;;;;;26.93;19.42;;;;;;;0.50;100.00;98814.72;1768423;79;20911;-69
2021/03/13 05:59:16;;;;;;;27.52;19.57;;;;;;;0.58;100.00;98821.00;1766650;79;21374;-70
2021/03/13 06:01:46;;;;;;;26.05;18.80;;;;;;;0.66;100.00;98822.92;1766736;79;21070;-71
2021/03/13 06:04:18;;;;;;;26.40;18.07;;;;;;;0.75;100.00;98827.07;1765484;79;20975;-71
2021/03/13 06:06:48;;;;;;;26.25;18.10;;;;;;;0.81;100.00;98834.61;1768869;79;21018;-70
2021/03/13 06:09:20;;;;;;;24.37;18.02;;;;;;;0.87;100.00;98830.88;1766740;81;20951;-72
2021/03/13 06:11:51;;;;;;;27.60;19.32;;;;;;;0.90;100.00;98828.78;1766853;79;21205;-69
2021/03/13 06:14:21;;;;;;;26.73;18.00;;;;;;;0.90;100.00;98830.95;1747250;79;21512;-71
2021/03/13 06:16:50;;;;;;;26.62;19.17;;;;;;;0.90;100.00;98829.66;1766986;79;20975;-71
2021/03/13 06:19:21;;;;;;;33.28;24.70;;;;;;;0.91;100.00;98827.52;1768282;79;20993;-67
2021/03/13 06:21:52;;;;;;;34.35;25.05;;;;;;;0.97;100.00;98831.16;1768497;79;21148;-68
2021/03/13 06:24:24;;;;;;;27.20;20.55;;;;;;;1.03;100.00;98834.79;1792304;79;22272;-68
2021/03/13 06:27:01;;;;;;;27.27;20.27;;;;;;;1.10;100.00;98838.00;1797810;79;20919;-69
2021/03/13 06:29:31;;;;;;;26.68;19.70;;;;;;;1.17;100.00;98842.52;1795593;78;20924;-72
2021/03/13 06:32:15;;;;;;;26.60;20.55;;;;;;;1.20;100.00;98838.70;1797604;78;20970;-68
2021/03/13 06:34:43;;;;;;;31.02;22.77;;;;;;;1.24;100.00;98837.94;1796742;79;20903;-68
2021/03/13 06:37:27;;;;;;;27.25;20.70;;;;;;;1.28;100.00;98845.81;1798022;78;21201;-69
2021/03/13 06:39:58;;;;;;;31.30;23.12;;;;;;;1.19;100.00;98852.53;1793576;79;21046;-70
2021/03/13 06:42:31;;;;;;;31.33;20.77;;;;;;;1.06;100.00;98842.66;1798096;78;21033;-67
2021/03/13 06:45:05;;;;;;;27.20;20.15;;;;;;;0.97;100.00;98849.33;1798031;78;20959;-68
2021/03/13 06:47:40;;;;;;;31.07;20.95;;;;;;;0.85;100.00;98845.53;1787199;78;21049;-69
2021/03/13 06:50:17;;;;;;;27.02;19.40;;;;;;;0.83;100.00;98850.22;1795852;79;21890;-66
2021/03/13 06:52:51;;;;;;;27.32;20.02;;;;;;;0.84;100.00;98850.69;1797830;79;20942;-68
2021/03/13 06:55:25;;;;;;;26.80;19.82;;;;;;;0.89;100.00;98862.08;1798016;78;21105;-68
2021/03/13 06:58:08;;;;;;;27.48;19.85;;;;;;;0.92;100.00;98863.04;1797718;79;20923;-67
2021/03/13 07:00:43;;;;;;;26.60;19.45;;;;;;;0.98;100.00;98863.66;1786292;79;21019;-68
2021/03/13 07:03:16;;;;;;;26.75;19.32;;;;;;;1.02;100.00;98864.20;1766458;81;21194;-69
2021/03/13 07:05:46;;;;;;;26.75;20.15;;;;;;;1.05;100.00;98868.59;1768681;79;21473;-67
2021/03/13 07:08:32;;;;;;;26.37;20.20;;;;;;;1.03;100.00;98863.78;1788252;79;21489;-66
2021/03/13 07:11:12;;;;;;;29.65;22.32;;;;;;;1.01;100.00;98862.86;1797643;79;20982;-68
2021/03/13 07:13:53;;;;;;;32.08;23.30;;;;;;;1.02;100.00;98867.22;1798048;78;20990;-68
2021/03/13 07:16:31;;;;;;;29.45;21.07;;;;;;;1.10;100.00;98866.58;1793535;79;21350;-68
2021/03/13 07:19:05;;;;;;;32.15;22.95;;;;;;;1.17;100.00;98876.30;1793923;79;21572;-68
2021/03/13 07:21:37;;;;;;;35.68;21.87;;;;;;;1.24;100.00;98874.73;1798425;79;21049;-69
2021/03/13 07:24:09;;;;;;;35.77;24.40;;;;;;;1.34;100.00;98880.63;1798544;78;20907;-67
2021/03/13 07:26:41;;;;;;;35.52;25.55;;;;;;;1.34;100.00;98880.63;1791988;78;22058;-69
2021/03/13 07:29:15;;;;;;;30.65;21.02;;;;;;;1.38;100.00;98886.36;1769063;79;21355;-68
2021/03/13 07:31:55;;;;;;;30.15;21.65;;;;;;;1.44;100.00;98889.16;1766893;80;20955;-69
2021/03/13 07:34:31;;;;;;;25.30;19.60;;;;;;;1.53;100.00;98891.11;1767148;79;20939;-69
2021/03/13 07:37:00;;;;;;;27.98;20.75;;;;;;;1.59;100.00;98889.95;1769230;79;21058;-68
2021/03/13 07:39:36;;;;;;;31.90;22.62;;;;;;;1.64;100.00;98884.45;1767016;81;21559;-68
2021/03/13 07:42:16;;;;;;;32.25;23.00;;;;;;;1.71;100.00;98885.06;1767356;79;22158;-68
2021/03/13 07:44:47;;;;;;;33.25;23.15;;;;;;;1.81;100.00;98875.34;1766866;79;21153;-67
2021/03/13 07:47:18;;;;;;;31.12;20.97;;;;;;;1.95;100.00;98876.12;1767178;79;21073;-70
2021/03/13 07:49:49;;;;;;;27.95;20.15;;;;;;;2.09;100.00;98863.00;1796995;78;20931;-68
2021/03/13 07:52:19;;;;;;;25.75;18.67;;;;;;;2.27;100.00;98862.53;1798155;78;21513;-69
2021/03/13 07:54:50;;;;;;;24.25;19.35;;;;;;;2.45;100.00;98864.27;1797925;79;21332;-69
2021/03/13 07:57:20;;;;;;;24.75;18.70;;;;;;;2.60;100.00;98861.10;1797912;79;21081;-69
2021/03/13 07:59:53;;;;;;;17.48;13.58;;;;;;;2.73;100.00;98863.98;1796093;79;20950;-69
2021/03/13 08:02:34;;;;;;;27.90;20.35;;;;;;;2.84;100.00;98858.59;1798139;78;20907;-68
2021/03/13 08:05:11;;;;;;;26.60;20.92;;;;;;;2.91;100.00;98848.30;1798365;79;20904;-68
2021/03/13 08:08:04;;;;;;;27.93;19.90;;;;;;;2.95;100.00;98852.72;1797443;78;21360;-70
2021/03/13 08:10:55;;;;;;;24.87;18.98;;;;;;;3.02;100.00;98843.74;1795536;79;21045;-70
2021/03/13 08:13:33;;;;;;;23.85;18.67;;;;;;;3.18;100.00;98842.72;1798101;79;20911;-70
2021/03/13 08:16:18;;;;;;;24.15;18.35;;;;;;;6.45;100.00;99545.55;1798005;78;21028;-68
2021/03/13 08:18:54;;;;;;;30.68;18.60;;;;;;;9.08;100.00;99283.41;1798366;78;21149;-70
2021/03/13 08:21:28;;;;;;;25.60;19.92;;;;;;;18.09;100.00;99162.19;1796221;78;21548;-70
2021/03/13 08:25:25;;;;;;;24.98;19.92;;;;;;;;;;1798112;78;21153;-69
2021/03/13 08:27:54;;;;;;;26.50;19.10;;;;;;;;;;1785330;79;20931;-69
2021/03/13 08:30:25;;;;;;;26.40;19.67;;;;;;;;;;1782308;78;20883;-69
2021/03/13 08:33:06;;;;;;;24.85;19.37;;;;;;;;;;1808895;77;20910;-69
2021/03/13 08:35:47;;;;;;;20.00;14.20;;;;;;;;;;1816291;77;21203;-69
2021/03/13 08:38:18;;;;;;;26.95;20.60;;;;;;;;;;1784813;79;21092;-69
2021/03/13 08:40:49;;;;;;;28.50;22.07;;;;;;;;;;1783869;79;21136;-69
2021/03/13 08:43:36;;;;;;;33.63;20.77;;;;;;;;;;1785895;79;21010;-69
2021/03/13 08:46:08;;;;;;;27.22;20.45;;;;;;;;;;1742435;79;20943;-68
2021/03/13 08:48:58;;;;;;;28.52;21.25;;;;;;;;;;1777021;77;21203;-68
2021/03/13 08:51:28;;;;;;;26.55;20.02;;;;;;;;;;1793236;77;20942;-69
2021/03/13 08:53:58;;;;;;;26.90;20.62;;;;;;;;;;1786491;79;20914;-69
2021/03/13 08:56:38;;;;;;;29.45;21.62;;;;;;;;;;1784128;80;20926;-69
2021/03/13 08:59:13;;;;;;;27.67;21.05;;;;;;;;;;1804301;79;20906;-69
2021/03/13 09:01:45;;;;;;;27.55;21.55;;;;;;;;;;1796655;77;21205;-68
2021/03/13 09:04:16;;;;;;;28.55;22.10;;;;;;;;;;1786180;79;20926;-70
2021/03/13 09:06:45;;;;;;;26.65;21.12;;;;;;;;;;1784287;79;21364;-69
2021/03/13 09:09:16;;;;;;;30.15;22.50;;;;;;;;;;1784032;79;20918;-69
2021/03/13 09:11:48;;;;;;;39.60;21.65;;;;;;;;;;1784166;79;20887;-69
2021/03/13 09:14:17;;;;;;;28.05;21.68;;;;;;;;;;1794284;79;21615;-68
2021/03/13 09:16:47;;;;;;;28.98;21.02;;;;;;;;;;1814318;79;20899;-68
2021/03/13 09:19:17;;;;;;;28.38;21.90;;;;;;;;;;1815215;79;20871;-65
2021/03/13 09:21:48;;;;;;;30.70;21.60;;;;;;;;;;1796411;78;21060;-69
2021/03/13 09:24:26;;;;;;;29.87;21.42;;;;;;;;;;1783765;79;21025;-69
2021/03/13 09:26:59;;;;;;;30.40;21.77;;;;;;;;;;1791740;79;21547;-69
2021/03/13 09:29:34;;;;;;;30.12;21.40;;;;;;;;;;1814913;79;20970;-69
2021/03/13 09:32:13;;;;;;;27.48;20.55;;;;;;;;;;1809178;78;21022;-69
2021/03/13 09:34:44;;;;;;;26.40;20.68;;;;;;;;;;1770045;79;20911;-70
2021/03/13 09:37:18;;;;;;;26.75;19.57;;;;;;;;;;1777316;79;21556;-69
2021/03/13 09:40:03;;;;;;;27.73;19.50;;;;;;;;;;1784814;79;21210;-69
2021/03/13 09:42:33;;;;;;;28.12;19.52;;;;;;;;;;1767138;81;20927;-68
2021/03/13 09:45:16;;;;;;;28.35;20.92;;;;;;;;;;1794735;79;20954;-70
2021/03/13 09:47:52;;;;;;;24.55;19.07;;;;;;;;;;1798440;79;21450;-68
2021/03/13 09:50:27;;;;;;;25.00;18.70;;;;;;;;;;1795879;79;21003;-69
2021/03/13 09:52:57;;;;;;;21.52;16.77;;;;;;;;;;1798509;79;21206;-69
2021/03/13 09:55:27;;;;;;;23.87;16.95;;;;;;;;;;1798599;78;21006;-69
2021/03/13 09:57:59;;;;;;;21.50;16.55;;;;;;;;;;1773734;79;21560;-69
2021/03/13 10:00:31;;;;;;;25.08;17.85;;;;;;;;;;1767445;81;20986;-69
2021/03/13 10:03:01;;;;;;;24.75;18.60;;;;;;;;;;1767342;80;20983;-69
2021/03/13 10:05:31;;;;;;;23.83;18.12;;;;;;;;;;1767330;81;21251;-69
2021/03/13 10:08:07;;;;;;;26.37;19.50;;;;;;;;;;1769232;79;20942;-69
2021/03/13 10:10:37;;;;;;;28.98;21.60;;;;;;;;;;1767836;78;20930;-69
2021/03/13 10:13:08;;;;;;;31.07;23.73;;;;;;;;;;1767584;79;20919;-69
2021/03/13 10:15:37;;;;;;;31.55;23.77;;;;;;;;;;1767267;79;20935;-68
2021/03/13 10:18:16;;;;;;;29.20;22.75;;;;;;;;;;1766999;81;21427;-69
2021/03/13 10:20:50;;;;;;;32.08;22.70;;;;;;;;;;1776312;79;20935;-68
2021/03/13 10:23:24;;;;;;;34.75;23.05;;;;;;;;;;1798482;79;20935;-67
2021/03/13 10:25:55;;;;;;;42.62;24.63;;;;;;;;;;1798363;78;21037;-68
2021/03/13 10:28:30;;;;;;;32.20;23.67;;;;;;;;;;1798311;78;20912;-67
2021/03/13 10:31:10;;;;;;;32.65;23.55;;;;;;;;;;1792566;78;21466;-67
2021/03/13 10:33:47;;;;;;;32.03;23.38;;;;;;;;;;1778718;79;20895;-68
2021/03/13 10:36:15;;;;;;;35.90;24.18;;;;;;;;;;1783732;80;20907;-67
2021/03/13 10:38:46;;;;;;;34.45;22.45;;;;;;;;;;1783631;79;20918;-68
2021/03/13 10:41:17;;;;;;;32.73;24.25;;;;;;;;;;1785596;79;21100;-69
2021/03/13 10:43:47;;;;;;;34.60;25.90;;;;;;;;;;1816023;77;21191;-68
2021/03/13 10:46:23;;;;;;;34.13;22.75;;;;;;;;;;1803758;78;21492;-68
2021/03/13 10:48:59;;;;;;;28.00;19.80;;;;;;;;;;1783500;79;21484;-67
2021/03/13 10:51:41;;;;;;;22.10;16.20;;;;;;;;;;1783522;80;21009;-67
2021/03/13 10:54:23;;;;;;;22.62;16.80;;;;;;;;;;1783816;80;20938;-67
2021/03/13 10:56:53;;;;;;;20.23;16.65;;;;;;;;;;1785517;79;21336;-67
2021/03/13 10:59:33;;;;;;;19.57;15.95;;;;;;;;;;1783305;80;21480;-66
2021/03/13 11:02:04;;;;;;;21.95;17.10;;;;;;;;;;1783410;80;20969;-66
2021/03/13 11:04:33;;;;;;;20.97;15.80;;;;;;;;;;1785511;79;21187;-66
2021/03/13 11:07:02;;;;;;;19.25;14.78;;;;;;;;;;1783634;79;21663;-67
2021/03/13 11:09:32;;;;;;;19.35;14.78;;;;;;;;;;1783320;80;21477;-66
2021/03/13 11:12:01;;;;;;;21.62;15.78;;;;;;;;;;1783230;80;20994;-67
2021/03/13 11:14:32;;;;;;;19.15;15.43;;;;;;;;;;1785535;79;20977;-67
2021/03/13 11:17:01;;;;;;;22.35;15.13;;;;;;;;;;1783587;79;21507;-66
2021/03/13 11:19:31;;;;;;;18.07;14.25;;;;;;;;;;1783559;79;21006;-68
2021/03/13 11:22:01;;;;;;;18.25;13.98;;;;;;;;;;1785469;79;22093;-69
2021/03/13 11:24:31;;;;;;;19.90;14.70;;;;;;;;;;1786860;79;20978;-69
2021/03/13 11:27:00;;;;;;;19.10;14.40;;;;;;;;;;1783633;79;20973;-68
2021/03/13 11:29:29;;;;;;;18.00;13.90;;;;;;;;;;1783911;79;20981;-69
2021/03/13 11:32:00;;;;;;;15.03;11.90;;;;;;;;;;1783936;79;21009;-69
2021/03/13 11:34:30;;;;;;;18.10;12.88;;;;;;;;;;1774650;79;21217;-69
2021/03/13 11:37:01;;;;;;;17.48;12.93;;;;;;;;;;1773113;80;20959;-69
2021/03/13 11:39:30;;;;;;;19.17;13.15;;;;;;;;;;1773189;79;20974;-70
2021/03/13 11:42:02;;;;;;;18.62;14.83;;;;;;;;;;1773234;79;21112;-70
2021/03/13 11:44:32;;;;;;;16.50;12.70;;;;;;;;;;1789812;79;20960;-70
2021/03/13 11:47:03;;;;;;;17.70;12.30;;;;;;;;;;1804741;78;21367;-70
2021/03/13 14:11:48;;;;;;;19.02;11.95;;;;;;;9.74;100.00;98624.08;1837254;77;22735;-61
2021/03/13 14:14:19;;;;;;;18.57;12.63;;;;;;;9.64;100.00;98622.44;1809532;79;20986;-66
2021/03/13 14:16:49;;;;;;;20.02;13.03;;;;;;;9.59;100.00;98620.75;1794278;77;22246;-66
2021/03/13 14:19:19;;;;;;;19.98;13.30;;;;;;;9.53;100.00;98620.81;1807611;78;21014;-66
2021/03/13 14:21:49;;;;;;;18.98;13.75;;;;;;;9.46;100.00;98622.64;1808928;78;21537;-66
2021/03/13 14:24:19;;;;;;;16.73;13.28;;;;;;;9.43;100.00;98626.59;1809384;79;20990;-66
2021/03/13 14:26:49;;;;;;;18.82;13.00;;;;;;;9.40;100.00;98623.54;1806083;79;21097;-67
2021/03/13 14:29:22;;;;;;;16.85;12.78;;;;;;;9.38;100.00;98623.13;1809410;78;21181;-66
2021/03/13 14:31:53;;;;;;;20.35;13.40;;;;;;;9.43;100.00;98625.27;1809458;79;21006;-68
2021/03/13 14:34:23;;;;;;;22.13;13.05;;;;;;;9.43;100.00;98634.03;1808082;78;21180;-64
2021/03/13 14:36:52;;;;;;;21.77;14.03;;;;;;;9.38;100.00;98634.97;1784002;79;21140;-66
2021/03/13 14:39:21;;;;;;;22.52;13.70;;;;;;;9.32;100.00;98636.34;1777629;79;21137;-67
2021/03/13 14:41:54;;;;;;;22.22;14.45;;;;;;;9.31;100.00;98635.47;1777606;80;21357;-66
2021/03/13 14:44:25;;;;;;;18.95;14.95;;;;;;;9.21;100.00;98637.77;1777474;80;21030;-66
2021/03/13 14:46:55;;;;;;;19.80;14.78;;;;;;;9.14;100.00;98641.34;1799974;78;20974;-66
2021/03/13 14:49:25;;;;;;;18.02;14.15;;;;;;;9.05;100.00;98646.67;1791653;79;20931;-67